createdAt,value
2015-09-11T00:00:06.396Z,73680
2015-09-11T00:00:18.820Z,73682
2015-09-11T00:00:31.258Z,73687
2015-09-11T00:00:43.679Z,73686
2015-09-11T00:00:55.929Z,73682
2015-09-11T00:01:08.320Z,73684
2015-09-11T00:01:20.713Z,73682
2015-09-11T00:01:33.135Z,73682
2015-09-11T00:01:45.619Z,73681
2015-09-11T00:01:58.010Z,73686
2015-09-11T00:02:10.400Z,73679
2015-09-11T00:02:22.807Z,73683
2015-09-11T00:02:35.198Z,73682
2015-09-11T00:02:47.667Z,73684
2015-09-11T00:03:00.136Z,73682
2015-09-11T00:03:12.557Z,73686
2015-09-11T00:03:25.968Z,73680
2015-09-11T00:03:39.339Z,73680
2015-09-11T00:03:54.193Z,73681
2015-09-11T00:04:08.932Z,73681
2015-09-11T00:04:22.622Z,73675
2015-09-11T00:04:35.730Z,73678
2015-09-11T00:04:48.110Z,73672
2015-09-11T00:05:00.345Z,73675
2015-09-11T00:05:12.579Z,73682
2015-09-11T00:05:24.894Z,73676
2015-09-11T00:05:37.206Z,73680
2015-09-11T00:05:49.612Z,73674
2015-09-11T00:06:01.894Z,73680
2015-09-11T00:06:14.300Z,73675
2015-09-11T00:06:26.536Z,73675
2015-09-11T00:06:38.927Z,73674
2015-09-11T00:06:51.333Z,73670
2015-09-11T00:07:03.802Z,73676
2015-09-11T00:07:16.255Z,73671
2015-09-11T00:07:28.648Z,73673
2015-09-11T00:07:40.351Z,73677
2015-09-11T00:07:52.054Z,73668
2015-09-11T00:08:04.476Z,73669
2015-09-11T00:08:16.898Z,73676
2015-09-11T00:08:29.383Z,73672
2015-09-11T00:08:41.852Z,73671
2015-09-11T00:08:54.289Z,73682
2015-09-11T00:09:06.680Z,73673
2015-09-11T00:09:19.133Z,73680
2015-09-11T00:09:31.589Z,73676
2015-09-11T00:09:43.980Z,73680
2015-09-11T00:09:56.386Z,73676
2015-09-11T00:10:08.792Z,73686
2015-09-11T00:10:21.167Z,73670
2015-09-11T00:10:33.590Z,73671
2015-09-11T00:10:46.059Z,73671
2015-09-11T00:10:58.481Z,73675
2015-09-11T00:11:10.871Z,73672
2015-09-11T00:11:23.278Z,73669
2015-09-11T00:11:35.701Z,73679
2015-09-11T00:11:48.139Z,73665
2015-09-11T00:12:00.561Z,73672
2015-09-11T00:12:12.983Z,73679
2015-09-11T00:12:25.405Z,73673
2015-09-11T00:12:37.892Z,73676
2015-09-11T00:12:50.376Z,73672
2015-09-11T00:13:02.767Z,73678
2015-09-11T00:13:15.158Z,73672
2015-09-11T00:13:27.548Z,73677
2015-09-11T00:13:39.940Z,73673
2015-09-11T00:13:52.346Z,73673
2015-09-11T00:14:04.737Z,73670
2015-09-11T00:14:17.127Z,73667
2015-09-11T00:14:29.549Z,73666
2015-09-11T00:14:41.958Z,73663
2015-09-11T00:14:54.365Z,73668
2015-09-11T00:15:06.771Z,73654
2015-09-11T00:15:19.193Z,73667
2015-09-11T00:15:31.630Z,73666
2015-09-11T00:15:44.085Z,73665
2015-09-11T00:15:56.507Z,73667
2015-09-11T00:16:08.898Z,73657
2015-09-11T00:16:21.289Z,73667
2015-09-11T00:16:33.695Z,73661
2015-09-11T00:16:46.072Z,73658
2015-09-11T00:16:58.494Z,73666
2015-09-11T00:17:10.916Z,73659
2015-09-11T00:17:23.306Z,73667
2015-09-11T00:17:35.712Z,73663
2015-09-11T00:17:48.104Z,73668
2015-09-11T00:18:00.479Z,73663
2015-09-11T00:18:12.885Z,73663
2015-09-11T00:18:25.276Z,73663
2015-09-11T00:18:37.713Z,73667
2015-09-11T00:18:50.154Z,73658
2015-09-11T00:19:02.576Z,73660
2015-09-11T00:19:15.013Z,73659
2015-09-11T00:19:27.435Z,73663
2015-09-11T00:19:39.904Z,73659
2015-09-11T00:19:52.311Z,73665
2015-09-11T00:20:04.702Z,73661
2015-09-11T00:20:17.124Z,73662
2015-09-11T00:20:29.530Z,73670
2015-09-11T00:20:41.923Z,73670
2015-09-11T00:20:54.313Z,73666
2015-09-11T00:21:06.704Z,73657
2015-09-11T00:21:19.110Z,73661
2015-09-11T00:21:31.501Z,73663
2015-09-11T00:21:44.018Z,73665
2015-09-11T00:21:56.440Z,73668
2015-09-11T00:22:08.143Z,73659
2015-09-11T00:22:20.628Z,73671
2015-09-11T00:22:33.143Z,73662
2015-09-11T00:22:45.583Z,73665
2015-09-11T00:22:58.020Z,73662
2015-09-11T00:23:10.411Z,73667
2015-09-11T00:23:22.817Z,73660
2015-09-11T00:23:35.286Z,73667
2015-09-11T00:23:47.725Z,73666
2015-09-11T00:24:00.132Z,73660
2015-09-11T00:24:12.538Z,73665
2015-09-11T00:24:24.960Z,73657
2015-09-11T00:24:37.382Z,73663
2015-09-11T00:24:49.806Z,73660
2015-09-11T00:25:02.227Z,73655
2015-09-11T00:25:14.634Z,73661
2015-09-11T00:25:26.868Z,73663
2015-09-11T00:25:39.290Z,73663
2015-09-11T00:25:51.745Z,73666
2015-09-11T00:26:04.245Z,73663
2015-09-11T00:26:16.683Z,73673
2015-09-11T00:26:29.073Z,73669
2015-09-11T00:26:41.479Z,73661
2015-09-11T00:26:53.872Z,73666
2015-09-11T00:27:06.278Z,73668
2015-09-11T00:27:18.669Z,73665
2015-09-11T00:27:31.153Z,73667
2015-09-11T00:27:43.638Z,73666
2015-09-11T00:27:56.030Z,73669
2015-09-11T00:28:07.733Z,73667
2015-09-11T00:28:20.140Z,73662
2015-09-11T00:28:32.546Z,73655
2015-09-11T00:28:45.015Z,73666
2015-09-11T00:28:57.484Z,73668
2015-09-11T00:29:09.906Z,73663
2015-09-11T00:29:22.328Z,73670
2015-09-11T00:29:34.719Z,73663
2015-09-11T00:29:47.172Z,73659
2015-09-11T00:29:59.597Z,73671
2015-09-11T00:30:11.987Z,73664
2015-09-11T00:30:24.394Z,73668
2015-09-11T00:30:36.784Z,73671
2015-09-11T00:30:49.206Z,73662
2015-09-11T00:31:01.583Z,73662
2015-09-11T00:31:13.989Z,73663
2015-09-11T00:31:26.396Z,73656
2015-09-11T00:31:38.802Z,73658
2015-09-11T00:31:51.224Z,73663
2015-09-11T00:32:03.648Z,73653
2015-09-11T00:32:15.366Z,73662
2015-09-11T00:32:27.054Z,73654
2015-09-11T00:32:39.445Z,73663
2015-09-11T00:32:51.835Z,73660
2015-09-11T00:33:04.227Z,73655
2015-09-11T00:33:16.649Z,73664
2015-09-11T00:33:29.039Z,73663
2015-09-11T00:33:41.430Z,73668
2015-09-11T00:33:53.821Z,73667
2015-09-11T00:34:06.214Z,73658
2015-09-11T00:34:18.636Z,73668
2015-09-11T00:34:31.042Z,73664
2015-09-11T00:34:43.449Z,73662
2015-09-11T00:34:55.870Z,73668
2015-09-11T00:35:08.293Z,73654
2015-09-11T00:35:20.715Z,73671
2015-09-11T00:35:33.153Z,73659
2015-09-11T00:35:45.590Z,73659
2015-09-11T00:35:57.981Z,73664
2015-09-11T00:36:10.405Z,73662
2015-09-11T00:36:22.795Z,73667
2015-09-11T00:36:35.202Z,73658
2015-09-11T00:36:47.592Z,73654
2015-09-11T00:36:59.983Z,73656
2015-09-11T00:37:12.375Z,73645
2015-09-11T00:37:24.766Z,73644
2015-09-11T00:37:37.157Z,73639
2015-09-11T00:37:49.563Z,73648
2015-09-11T00:38:01.971Z,73646
2015-09-11T00:38:14.377Z,73648
2015-09-11T00:38:26.784Z,73650
2015-09-11T00:38:39.221Z,73644
2015-09-11T00:38:51.674Z,73663
2015-09-11T00:39:04.115Z,73657
2015-09-11T00:39:16.537Z,73657
2015-09-11T00:39:28.927Z,73666
2015-09-11T00:39:41.318Z,73663
2015-09-11T00:39:53.709Z,73666
2015-09-11T00:40:06.117Z,73663
2015-09-11T00:40:18.570Z,73666
2015-09-11T00:40:30.976Z,73661
2015-09-11T00:40:43.367Z,73664
2015-09-11T00:40:55.757Z,73662
2015-09-11T00:41:08.212Z,73660
2015-09-11T00:41:20.606Z,73669
2015-09-11T00:41:33.012Z,73663
2015-09-11T00:41:45.434Z,73674
2015-09-11T00:41:57.856Z,73667
2015-09-11T00:42:10.280Z,73664
2015-09-11T00:42:22.733Z,73672
2015-09-11T00:42:35.155Z,73664
2015-09-11T00:42:47.546Z,73665
2015-09-11T00:42:59.983Z,73673
2015-09-11T00:43:12.423Z,73666
2015-09-11T00:43:24.829Z,73675
2015-09-11T00:43:37.219Z,73669
2015-09-11T00:43:49.610Z,73664
2015-09-11T00:44:02.001Z,73663
2015-09-11T00:44:14.441Z,73660
2015-09-11T00:44:26.863Z,73665
2015-09-11T00:44:39.269Z,73666
2015-09-11T00:44:51.519Z,73665
2015-09-11T00:45:03.926Z,73664
2015-09-11T00:45:16.317Z,73666
2015-09-11T00:45:28.739Z,73664
2015-09-11T00:45:41.145Z,73655
2015-09-11T00:45:53.567Z,73658
2015-09-11T00:46:05.989Z,73654
2015-09-11T00:46:18.429Z,73670
2015-09-11T00:46:30.819Z,73654
2015-09-11T00:46:43.210Z,73666
2015-09-11T00:46:55.600Z,73656
2015-09-11T00:47:07.991Z,73655
2015-09-11T00:47:20.384Z,73657
2015-09-11T00:47:32.852Z,73659
2015-09-11T00:47:45.243Z,73656
2015-09-11T00:47:57.634Z,73664
2015-09-11T00:48:10.040Z,73656
2015-09-11T00:48:22.448Z,73661
2015-09-11T00:48:34.886Z,73658
2015-09-11T00:48:47.308Z,73664
2015-09-11T00:48:59.729Z,73667
2015-09-11T00:49:12.183Z,73663
2015-09-11T00:49:24.622Z,73667
2015-09-11T00:49:37.044Z,73662
2015-09-11T00:49:49.450Z,73659
2015-09-11T00:50:01.841Z,73661
2015-09-11T00:50:14.231Z,73655
2015-09-11T00:50:26.655Z,73659
2015-09-11T00:50:39.062Z,73660
2015-09-11T00:50:50.765Z,73659
2015-09-11T00:51:03.171Z,73661
2015-09-11T00:51:15.577Z,73659
2015-09-11T00:51:27.985Z,73657
2015-09-11T00:51:40.423Z,73658
2015-09-11T00:51:52.814Z,73657
2015-09-11T00:52:05.235Z,73657
2015-09-11T00:52:17.642Z,73668
2015-09-11T00:52:30.066Z,73667
2015-09-11T00:52:42.534Z,73661
2015-09-11T00:52:54.987Z,73670
2015-09-11T00:53:07.394Z,73661
2015-09-11T00:53:19.802Z,73666
2015-09-11T00:53:32.193Z,73662
2015-09-11T00:53:44.599Z,73662
2015-09-11T00:53:57.021Z,73667
2015-09-11T00:54:09.427Z,73668
2015-09-11T00:54:21.866Z,73659
2015-09-11T00:54:34.304Z,73661
2015-09-11T00:54:46.695Z,73659
2015-09-11T00:54:59.116Z,73659
2015-09-11T00:55:11.523Z,73656
2015-09-11T00:55:23.946Z,73660
2015-09-11T00:55:36.383Z,73657
2015-09-11T00:55:48.805Z,73654
2015-09-11T00:56:01.227Z,73654
2015-09-11T00:56:13.649Z,73650
2015-09-11T00:56:26.057Z,73658
2015-09-11T00:56:38.448Z,73653
2015-09-11T00:56:50.838Z,73654
2015-09-11T00:57:03.244Z,73663
2015-09-11T00:57:15.651Z,73662
2015-09-11T00:57:28.044Z,73661
2015-09-11T00:57:40.451Z,73662
2015-09-11T00:57:52.857Z,73668
2015-09-11T00:58:05.247Z,73665
2015-09-11T00:58:17.654Z,73666
2015-09-11T00:58:29.921Z,73670
2015-09-11T00:58:42.328Z,73670
2015-09-11T00:58:54.749Z,73670
2015-09-11T00:59:07.171Z,73669
2015-09-11T00:59:19.609Z,73663
2015-09-11T00:59:32.048Z,73664
2015-09-11T00:59:44.470Z,73666
2015-09-11T00:59:56.923Z,73665
2015-09-11T01:00:09.314Z,73661
2015-09-11T01:00:21.705Z,73662
2015-09-11T01:00:34.113Z,73657
2015-09-11T01:00:46.566Z,73655
2015-09-11T01:00:58.957Z,73660
2015-09-11T01:01:11.347Z,73652
2015-09-11T01:01:23.753Z,73655
2015-09-11T01:01:36.176Z,73659
2015-09-11T01:01:48.583Z,73655
2015-09-11T01:02:01.004Z,73662
2015-09-11T01:02:13.426Z,73658
2015-09-11T01:02:25.848Z,73655
2015-09-11T01:02:38.273Z,73656
2015-09-11T01:02:50.711Z,73659
2015-09-11T01:03:03.148Z,73660
2015-09-11T01:03:15.586Z,73659
2015-09-11T01:03:27.992Z,73656
2015-09-11T01:03:40.383Z,73659
2015-09-11T01:03:52.774Z,73655
2015-09-11T01:04:05.024Z,73658
2015-09-11T01:04:17.415Z,73659
2015-09-11T01:04:29.805Z,73660
2015-09-11T01:04:42.198Z,73658
2015-09-11T01:04:54.604Z,73655
2015-09-11T01:05:06.995Z,73652
2015-09-11T01:05:19.401Z,73654
2015-09-11T01:05:31.807Z,73659
2015-09-11T01:05:44.231Z,73659
2015-09-11T01:05:56.653Z,73657
2015-09-11T01:06:09.075Z,73662
2015-09-11T01:06:21.512Z,73658
2015-09-11T01:06:33.934Z,73662
2015-09-11T01:06:46.375Z,73659
2015-09-11T01:06:58.765Z,73662
2015-09-11T01:07:11.172Z,73657
2015-09-11T01:07:23.562Z,73655
2015-09-11T01:07:35.969Z,73659
2015-09-11T01:07:48.376Z,73655
2015-09-11T01:08:00.063Z,73658
2015-09-11T01:08:12.485Z,73659
2015-09-11T01:08:24.891Z,73659
2015-09-11T01:08:37.298Z,73662
2015-09-11T01:08:49.722Z,73664
2015-09-11T01:09:02.159Z,73662
2015-09-11T01:09:14.597Z,73670
2015-09-11T01:09:27.018Z,73671
2015-09-11T01:09:39.425Z,73670
2015-09-11T01:09:51.817Z,73667
2015-09-11T01:10:03.520Z,73671
2015-09-11T01:10:15.911Z,73665
2015-09-11T01:10:28.317Z,73669
2015-09-11T01:10:40.708Z,73664
2015-09-11T01:10:53.102Z,73663
2015-09-11T01:11:05.523Z,73661
2015-09-11T01:11:17.914Z,73663
2015-09-11T01:11:30.305Z,73657
2015-09-11T01:11:42.727Z,73658
2015-09-11T01:11:55.134Z,73659
2015-09-11T01:12:07.540Z,73659
2015-09-11T01:12:19.946Z,73660
2015-09-11T01:12:32.399Z,73662
2015-09-11T01:12:44.837Z,73662
2015-09-11T01:12:57.276Z,73671
2015-09-11T01:13:09.698Z,73666
2015-09-11T01:13:22.120Z,73666
2015-09-11T01:13:34.511Z,73661
2015-09-11T01:13:46.901Z,73660
2015-09-11T01:13:59.310Z,73660
2015-09-11T01:14:11.700Z,73664
2015-09-11T01:14:24.091Z,73662
2015-09-11T01:14:36.497Z,73663
2015-09-11T01:14:48.888Z,73665
2015-09-11T01:15:01.280Z,73663
2015-09-11T01:15:13.687Z,73660
2015-09-11T01:15:26.124Z,73656
2015-09-11T01:15:38.530Z,73653
2015-09-11T01:15:50.952Z,73655
2015-09-11T01:16:03.376Z,73655
2015-09-11T01:16:15.798Z,73657
2015-09-11T01:16:28.251Z,73662
2015-09-11T01:16:40.673Z,73664
2015-09-11T01:16:53.111Z,73666
2015-09-11T01:17:05.503Z,73669
2015-09-11T01:17:17.894Z,73661
2015-09-11T01:17:30.300Z,73662
2015-09-11T01:17:42.691Z,73664
2015-09-11T01:17:55.099Z,73664
2015-09-11T01:18:07.505Z,73665
2015-09-11T01:18:19.896Z,73663
2015-09-11T01:18:32.286Z,73659
2015-09-11T01:18:44.708Z,73662
2015-09-11T01:18:57.132Z,73663
2015-09-11T01:19:09.538Z,73662
2015-09-11T01:19:21.976Z,73661
2015-09-11T01:19:34.398Z,73660
2015-09-11T01:19:46.820Z,73654
2015-09-11T01:19:59.244Z,73652
2015-09-11T01:20:10.962Z,73650
2015-09-11T01:20:23.384Z,73649
2015-09-11T01:20:35.806Z,73646
2015-09-11T01:20:48.244Z,73651
2015-09-11T01:21:00.666Z,73653
2015-09-11T01:21:13.073Z,73650
2015-09-11T01:21:25.463Z,73654
2015-09-11T01:21:37.854Z,73655
2015-09-11T01:21:50.260Z,73656
2015-09-11T01:22:02.701Z,73659
2015-09-11T01:22:15.185Z,73660
2015-09-11T01:22:27.607Z,73661
2015-09-11T01:22:39.857Z,73660
2015-09-11T01:22:52.279Z,73661
2015-09-11T01:23:04.702Z,73661
2015-09-11T01:23:17.124Z,73655
2015-09-11T01:23:29.561Z,73656
2015-09-11T01:23:42.045Z,73661
2015-09-11T01:23:54.483Z,73660
2015-09-11T01:24:06.877Z,73659
2015-09-11T01:24:19.267Z,73658
2015-09-11T01:24:31.673Z,73663
2015-09-11T01:24:44.064Z,73662
2015-09-11T01:24:56.455Z,73661
2015-09-11T01:25:08.722Z,73657
2015-09-11T01:25:21.113Z,73663
2015-09-11T01:25:33.519Z,73659
2015-09-11T01:25:45.910Z,73661
2015-09-11T01:25:58.332Z,73663
2015-09-11T01:26:10.724Z,73671
2015-09-11T01:26:23.131Z,73673
2015-09-11T01:26:35.568Z,73672
2015-09-11T01:26:47.974Z,73671
2015-09-11T01:27:00.427Z,73669
2015-09-11T01:27:12.914Z,73669
2015-09-11T01:27:25.304Z,73667
2015-09-11T01:27:37.711Z,73666
2015-09-11T01:27:50.101Z,73667
2015-09-11T01:28:02.617Z,73672
2015-09-11T01:28:15.009Z,73670
2015-09-11T01:28:27.446Z,73667
2015-09-11T01:28:39.821Z,73668
2015-09-11T01:28:52.227Z,73664
2015-09-11T01:29:04.618Z,73655
2015-09-11T01:29:17.058Z,73646
2015-09-11T01:29:29.465Z,73652
2015-09-11T01:29:41.871Z,73654
2015-09-11T01:29:54.277Z,73656
2015-09-11T01:30:06.715Z,73656
2015-09-11T01:30:19.139Z,73658
2015-09-11T01:30:31.576Z,73655
2015-09-11T01:30:44.014Z,73663
2015-09-11T01:30:56.451Z,73663
2015-09-11T01:31:08.857Z,73661
2015-09-11T01:31:21.265Z,73659
2015-09-11T01:31:33.655Z,73657
2015-09-11T01:31:46.046Z,73653
2015-09-11T01:31:58.436Z,73654
2015-09-11T01:32:10.827Z,73650
2015-09-11T01:32:23.283Z,73654
2015-09-11T01:32:35.674Z,73651
2015-09-11T01:32:48.096Z,73650
2015-09-11T01:33:00.518Z,73653
2015-09-11T01:33:12.908Z,73653
2015-09-11T01:33:25.425Z,73657
2015-09-11T01:33:37.878Z,73658
2015-09-11T01:33:50.315Z,73662
2015-09-11T01:34:02.769Z,73660
2015-09-11T01:34:15.190Z,73657
2015-09-11T01:34:27.600Z,73654
2015-09-11T01:34:39.850Z,73656
2015-09-11T01:34:52.303Z,73656
2015-09-11T01:35:04.693Z,73652
2015-09-11T01:35:17.084Z,73657
2015-09-11T01:35:29.477Z,73663
2015-09-11T01:35:41.867Z,73661
2015-09-11T01:35:54.274Z,73659
2015-09-11T01:36:06.664Z,73659
2015-09-11T01:36:19.055Z,73656
2015-09-11T01:36:31.462Z,73666
2015-09-11T01:36:43.884Z,73662
2015-09-11T01:36:55.603Z,73669
2015-09-11T01:37:08.040Z,73673
2015-09-11T01:37:20.462Z,73678
2015-09-11T01:37:32.927Z,73674
2015-09-11T01:37:45.364Z,73671
2015-09-11T01:37:57.802Z,73674
2015-09-11T01:38:10.208Z,73671
2015-09-11T01:38:22.599Z,73676
2015-09-11T01:38:34.893Z,73675
2015-09-11T01:38:47.127Z,73670
2015-09-11T01:38:59.518Z,73671
2015-09-11T01:39:11.940Z,73662
2015-09-11T01:39:24.346Z,73669
2015-09-11T01:39:36.796Z,73668
2015-09-11T01:39:49.218Z,73667
2015-09-11T01:40:00.906Z,73668
2015-09-11T01:40:13.327Z,73668
2015-09-11T01:40:25.734Z,73665
2015-09-11T01:40:38.216Z,73669
2015-09-11T01:40:50.654Z,73667
2015-09-11T01:41:03.169Z,73669
2015-09-11T01:41:15.591Z,73665
2015-09-11T01:41:28.060Z,73664
2015-09-11T01:41:40.492Z,73667
2015-09-11T01:41:52.882Z,73669
2015-09-11T01:42:05.273Z,73666
2015-09-11T01:42:17.679Z,73663
2015-09-11T01:42:30.070Z,73661
2015-09-11T01:42:42.321Z,73657
2015-09-11T01:42:54.743Z,73656
2015-09-11T01:43:07.118Z,73661
2015-09-11T01:43:19.524Z,73664
2015-09-11T01:43:31.930Z,73667
2015-09-11T01:43:44.338Z,73667
2015-09-11T01:43:56.760Z,73678
2015-09-11T01:44:09.244Z,73673
2015-09-11T01:44:21.682Z,73678
2015-09-11T01:44:34.104Z,73673
2015-09-11T01:44:46.559Z,73673
2015-09-11T01:44:58.997Z,73671
2015-09-11T01:45:11.387Z,73667
2015-09-11T01:45:23.856Z,73669
2015-09-11T01:45:36.278Z,73665
2015-09-11T01:45:48.701Z,73656
2015-09-11T01:46:01.092Z,73659
2015-09-11T01:46:13.482Z,73660
2015-09-11T01:46:25.889Z,73660
2015-09-11T01:46:38.279Z,73649
2015-09-11T01:46:50.685Z,73653
2015-09-11T01:47:03.107Z,73657
2015-09-11T01:47:15.513Z,73657
2015-09-11T01:47:27.919Z,73656
2015-09-11T01:47:40.357Z,73655
2015-09-11T01:47:52.787Z,73660
2015-09-11T01:48:05.224Z,73652
2015-09-11T01:48:17.646Z,73659
2015-09-11T01:48:30.084Z,73656
2015-09-11T01:48:42.498Z,73655
2015-09-11T01:48:54.935Z,73652
2015-09-11T01:49:07.342Z,73651
2015-09-11T01:49:19.013Z,73661
2015-09-11T01:49:31.420Z,73663
2015-09-11T01:49:43.817Z,73662
2015-09-11T01:49:56.302Z,73661
2015-09-11T01:50:08.739Z,73661
2015-09-11T01:50:21.130Z,73659
2015-09-11T01:50:33.395Z,73661
2015-09-11T01:50:45.840Z,73666
2015-09-11T01:50:57.824Z,73667
2015-09-11T01:51:10.168Z,73674
2015-09-11T01:51:22.700Z,73674
2015-09-11T01:51:35.169Z,73672
2015-09-11T01:51:47.629Z,73674
2015-09-11T01:52:00.069Z,73671
2015-09-11T01:52:12.459Z,73674
2015-09-11T01:52:24.147Z,73672
2015-09-11T01:52:36.553Z,73671
2015-09-11T01:52:48.979Z,73667
2015-09-11T01:53:01.432Z,73674
2015-09-11T01:53:13.120Z,73664
2015-09-11T01:53:25.526Z,73665
2015-09-11T01:53:37.916Z,73666
2015-09-11T01:53:50.327Z,73665
2015-09-11T01:54:02.733Z,73667
2015-09-11T01:54:15.217Z,73670
2015-09-11T01:54:27.624Z,73668
2015-09-11T01:54:40.061Z,73665
2015-09-11T01:54:52.486Z,73668
2015-09-11T01:55:04.939Z,73671
2015-09-11T01:55:17.408Z,73667
2015-09-11T01:55:29.830Z,73670
2015-09-11T01:55:42.267Z,73673
2015-09-11T01:55:54.677Z,73670
2015-09-11T01:56:07.084Z,73670
2015-09-11T01:56:19.506Z,73659
2015-09-11T01:56:31.943Z,73661
2015-09-11T01:56:44.334Z,73668
2015-09-11T01:56:56.744Z,73665
2015-09-11T01:57:09.166Z,73664
2015-09-11T01:57:21.588Z,73662
2015-09-11T01:57:33.994Z,73658
2015-09-11T01:57:46.228Z,73660
2015-09-11T01:57:58.652Z,73675
2015-09-11T01:58:11.058Z,73672
2015-09-11T01:58:23.496Z,73672
2015-09-11T01:58:35.933Z,73667
2015-09-11T01:58:48.371Z,73662
2015-09-11T01:59:00.811Z,73664
2015-09-11T01:59:13.249Z,73665
2015-09-11T01:59:25.640Z,73668
2015-09-11T01:59:38.046Z,73667
2015-09-11T01:59:50.436Z,73665
2015-09-11T02:00:02.877Z,73663
2015-09-11T02:00:15.268Z,73662
2015-09-11T02:00:27.674Z,73667
2015-09-11T02:00:40.080Z,73669
2015-09-11T02:00:52.471Z,73666
2015-09-11T02:01:04.880Z,73667
2015-09-11T02:01:17.286Z,73667
2015-09-11T02:01:29.067Z,73663
2015-09-11T02:01:41.583Z,73672
2015-09-11T02:01:54.005Z,73664
2015-09-11T02:02:06.430Z,73666
2015-09-11T02:02:18.852Z,73666
2015-09-11T02:02:31.242Z,73658
2015-09-11T02:02:43.649Z,73658
2015-09-11T02:02:56.039Z,73666
2015-09-11T02:03:08.510Z,73668
2015-09-11T02:03:20.932Z,73670
2015-09-11T02:03:33.322Z,73677
2015-09-11T02:03:45.729Z,73677
2015-09-11T02:03:58.135Z,73677
2015-09-11T02:04:10.528Z,73677
2015-09-11T02:04:22.949Z,73674
2015-09-11T02:04:35.371Z,73675
2015-09-11T02:04:47.793Z,73672
2015-09-11T02:05:00.233Z,73676
2015-09-11T02:05:12.655Z,73674
2015-09-11T02:05:25.061Z,73672
2015-09-11T02:05:37.451Z,73676
2015-09-11T02:05:49.858Z,73664
2015-09-11T02:06:02.267Z,73675
2015-09-11T02:06:14.689Z,73670
2015-09-11T02:06:27.079Z,73668
2015-09-11T02:06:39.454Z,73672
2015-09-11T02:06:51.845Z,73670
2015-09-11T02:07:04.222Z,73669
2015-09-11T02:07:16.628Z,73666
2015-09-11T02:07:29.050Z,73664
2015-09-11T02:07:41.472Z,73663
2015-09-11T02:07:53.941Z,73669
2015-09-11T02:08:06.427Z,73670
2015-09-11T02:08:18.849Z,73671
2015-09-11T02:08:31.287Z,73676
2015-09-11T02:08:43.708Z,73673
2015-09-11T02:08:56.162Z,73675
2015-09-11T02:09:08.554Z,73681
2015-09-11T02:09:20.960Z,73683
2015-09-11T02:09:33.351Z,73682
2015-09-11T02:09:45.757Z,73679
2015-09-11T02:09:58.148Z,73683
2015-09-11T02:10:10.540Z,73681
2015-09-11T02:10:23.040Z,73677
2015-09-11T02:10:35.493Z,73682
2015-09-11T02:10:47.883Z,73679
2015-09-11T02:11:00.290Z,73675
2015-09-11T02:11:12.713Z,73673
2015-09-11T02:11:25.104Z,73676
2015-09-11T02:11:37.526Z,73671
2015-09-11T02:11:49.963Z,73667
2015-09-11T02:12:02.385Z,73671
2015-09-11T02:12:14.841Z,73671
2015-09-11T02:12:27.263Z,73673
2015-09-11T02:12:39.685Z,73671
2015-09-11T02:12:52.076Z,73673
2015-09-11T02:13:04.466Z,73673
2015-09-11T02:13:16.906Z,73671
2015-09-11T02:13:29.328Z,73668
2015-09-11T02:13:41.718Z,73667
2015-09-11T02:13:54.140Z,73672
2015-09-11T02:14:06.547Z,73680
2015-09-11T02:14:18.235Z,73674
2015-09-11T02:14:30.641Z,73676
2015-09-11T02:14:43.094Z,73676
2015-09-11T02:14:55.344Z,73680
2015-09-11T02:15:07.766Z,73679
2015-09-11T02:15:20.190Z,73684
2015-09-11T02:15:32.628Z,73690
2015-09-11T02:15:44.909Z,73691
2015-09-11T02:15:57.331Z,73684
2015-09-11T02:16:09.737Z,73682
2015-09-11T02:16:22.131Z,73679
2015-09-11T02:16:34.553Z,73676
2015-09-11T02:16:46.943Z,73677
2015-09-11T02:16:59.396Z,73674
2015-09-11T02:17:11.818Z,73671
2015-09-11T02:17:24.226Z,73671
2015-09-11T02:17:36.617Z,73678
2015-09-11T02:17:49.008Z,73675
2015-09-11T02:18:01.414Z,73678
2015-09-11T02:18:13.820Z,73673
2015-09-11T02:18:26.227Z,73674
2015-09-11T02:18:38.665Z,73670
2015-09-11T02:18:51.134Z,73677
2015-09-11T02:19:03.649Z,73666
2015-09-11T02:19:16.040Z,73671
2015-09-11T02:19:28.449Z,73669
2015-09-11T02:19:40.840Z,73669
2015-09-11T02:19:53.230Z,73663
2015-09-11T02:20:05.621Z,73660
2015-09-11T02:20:18.137Z,73656
2015-09-11T02:20:30.544Z,73660
2015-09-11T02:20:42.778Z,73658
2015-09-11T02:20:55.169Z,73646
2015-09-11T02:21:07.591Z,73659
2015-09-11T02:21:19.997Z,73659
2015-09-11T02:21:32.406Z,73659
2015-09-11T02:21:44.844Z,73673
2015-09-11T02:21:57.266Z,73671
2015-09-11T02:22:09.734Z,73674
2015-09-11T02:22:22.172Z,73673
2015-09-11T02:22:34.565Z,73674
2015-09-11T02:22:46.971Z,73673
2015-09-11T02:22:59.361Z,73676
2015-09-11T02:23:11.799Z,73672
2015-09-11T02:23:24.268Z,73672
2015-09-11T02:23:36.769Z,73662
2015-09-11T02:23:49.159Z,73658
2015-09-11T02:24:01.566Z,73657
2015-09-11T02:24:13.956Z,73665
2015-09-11T02:24:26.362Z,73662
2015-09-11T02:24:38.787Z,73670
2015-09-11T02:24:51.194Z,73668
2015-09-11T02:25:03.662Z,73672
2015-09-11T02:25:15.381Z,73667
2015-09-11T02:25:27.803Z,73659
2015-09-11T02:25:40.241Z,73666
2015-09-11T02:25:51.929Z,73665
2015-09-11T02:26:04.320Z,73668
2015-09-11T02:26:16.726Z,73666
2015-09-11T02:26:29.148Z,73676
2015-09-11T02:26:41.618Z,73675
2015-09-11T02:26:53.868Z,73672
2015-09-11T02:27:06.259Z,73667
2015-09-11T02:27:18.650Z,73665
2015-09-11T02:27:31.040Z,73662
2015-09-11T02:27:43.465Z,73668
2015-09-11T02:27:55.934Z,73668
2015-09-11T02:28:08.387Z,73672
2015-09-11T02:28:20.809Z,73665
2015-09-11T02:28:33.231Z,73667
2015-09-11T02:28:45.654Z,73666
2015-09-11T02:28:58.091Z,73668
2015-09-11T02:29:10.513Z,73665
2015-09-11T02:29:22.904Z,73670
2015-09-11T02:29:35.296Z,73675
2015-09-11T02:29:47.718Z,73673
2015-09-11T02:30:00.124Z,73678
2015-09-11T02:30:12.515Z,73677
2015-09-11T02:30:24.906Z,73685
2015-09-11T02:30:37.298Z,73674
2015-09-11T02:30:49.705Z,73665
2015-09-11T02:31:02.095Z,73670
2015-09-11T02:31:14.548Z,73667
2015-09-11T02:31:27.001Z,73672
2015-09-11T02:31:39.410Z,73665
2015-09-11T02:31:51.816Z,73669
2015-09-11T02:32:04.316Z,73670
2015-09-11T02:32:16.738Z,73669
2015-09-11T02:32:29.175Z,73672
2015-09-11T02:32:40.896Z,73667
2015-09-11T02:32:53.287Z,73656
2015-09-11T02:33:05.521Z,73658
2015-09-11T02:33:17.943Z,73661
2015-09-11T02:33:30.380Z,73663
2015-09-11T02:33:42.789Z,73669
2015-09-11T02:33:55.179Z,73664
2015-09-11T02:34:07.586Z,73666
2015-09-11T02:34:19.976Z,73667
2015-09-11T02:34:32.367Z,73662
2015-09-11T02:34:44.775Z,73662
2015-09-11T02:34:57.213Z,73656
2015-09-11T02:35:09.666Z,73656
2015-09-11T02:35:22.103Z,73654
2015-09-11T02:35:34.541Z,73655
2015-09-11T02:35:46.949Z,73662
2015-09-11T02:35:59.215Z,73665
2015-09-11T02:36:11.605Z,73662
2015-09-11T02:36:23.996Z,73664
2015-09-11T02:36:36.433Z,73664
2015-09-11T02:36:48.825Z,73661
2015-09-11T02:37:01.216Z,73661
2015-09-11T02:37:12.903Z,73663
2015-09-11T02:37:25.372Z,73668
2015-09-11T02:37:37.809Z,73671
2015-09-11T02:37:50.202Z,73670
2015-09-11T02:38:02.608Z,73668
2015-09-11T02:38:15.014Z,73670
2015-09-11T02:38:27.421Z,73671
2015-09-11T02:38:39.858Z,73668
2015-09-11T02:38:52.282Z,73668
2015-09-11T02:39:04.735Z,73668
2015-09-11T02:39:17.157Z,73663
2015-09-11T02:39:28.876Z,73665
2015-09-11T02:39:41.266Z,73668